sensor_id;sensor_type;location;lat;lon;timestamp;P1;durP1;ratioP1;P2;durP2;ratioP2
46411;SDS011;32113;42.012;24.870;2023-03-14T00:00:31;11.05;;;6.60;;
46411;SDS011;32113;42.012;24.870;2023-03-14T00:02:58;11.13;;;5.97;;
46411;SDS011;32113;42.012;24.870;2023-03-14T00:05:23;9.98;;;4.85;;
46411;SDS011;32113;42.012;24.870;2023-03-14T00:07:49;5.72;;;3.70;;
46411;SDS011;32113;42.012;24.870;2023-03-14T00:10:14;10.00;;;4.45;;
46411;SDS011;32113;42.012;24.870;2023-03-14T00:12:40;9.93;;;4.72;;
46411;SDS011;32113;42.012;24.870;2023-03-14T00:15:06;7.30;;;4.25;;
46411;SDS011;32113;42.012;24.870;2023-03-14T00:17:33;6.35;;;4.47;;
46411;SDS011;32113;42.012;24.870;2023-03-14T00:19:59;6.90;;;4.40;;
46411;SDS011;32113;42.012;24.870;2023-03-14T00:22:31;7.32;;;4.13;;
46411;SDS011;32113;42.012;24.870;2023-03-14T00:24:57;8.73;;;4.47;;
46411;SDS011;32113;42.012;24.870;2023-03-14T00:27:22;10.95;;;4.10;;
46411;SDS011;32113;42.012;24.870;2023-03-14T00:29:48;7.97;;;4.15;;
46411;SDS011;32113;42.012;24.870;2023-03-14T00:32:13;8.55;;;4.47;;
46411;SDS011;32113;42.012;24.870;2023-03-14T00:34:38;8.25;;;3.78;;
46411;SDS011;32113;42.012;24.870;2023-03-14T00:37:04;10.52;;;4.15;;
46411;SDS011;32113;42.012;24.870;2023-03-14T00:39:30;15.18;;;5.60;;
46411;SDS011;32113;42.012;24.870;2023-03-14T00:41:55;12.80;;;5.63;;
46411;SDS011;32113;42.012;24.870;2023-03-14T00:44:21;16.25;;;5.10;;
46411;SDS011;32113;42.012;24.870;2023-03-14T00:46:46;10.82;;;5.65;;
46411;SDS011;32113;42.012;24.870;2023-03-14T00:49:12;17.60;;;5.95;;
46411;SDS011;32113;42.012;24.870;2023-03-14T00:51:37;14.13;;;6.18;;
46411;SDS011;32113;42.012;24.870;2023-03-14T00:54:02;12.57;;;5.25;;
46411;SDS011;32113;42.012;24.870;2023-03-14T00:56:28;11.70;;;5.70;;
46411;SDS011;32113;42.012;24.870;2023-03-14T00:58:56;15.82;;;7.25;;
46411;SDS011;32113;42.012;24.870;2023-03-14T01:01:21;15.73;;;6.90;;
46411;SDS011;32113;42.012;24.870;2023-03-14T01:03:49;13.85;;;6.45;;
46411;SDS011;32113;42.012;24.870;2023-03-14T01:06:17;16.90;;;7.88;;
46411;SDS011;32113;42.012;24.870;2023-03-14T01:08:44;16.25;;;7.75;;
46411;SDS011;32113;42.012;24.870;2023-03-14T01:11:29;14.43;;;7.72;;
46411;SDS011;32113;42.012;24.870;2023-03-14T01:13:57;10.38;;;4.93;;
46411;SDS011;32113;42.012;24.870;2023-03-14T01:16:23;13.30;;;4.93;;
46411;SDS011;32113;42.012;24.870;2023-03-14T01:21:17;10.40;;;4.78;;
46411;SDS011;32113;42.012;24.870;2023-03-14T01:23:45;9.05;;;4.45;;
46411;SDS011;32113;42.012;24.870;2023-03-14T01:26:12;6.40;;;3.60;;
46411;SDS011;32113;42.012;24.870;2023-03-14T01:28:40;6.75;;;3.28;;
46411;SDS011;32113;42.012;24.870;2023-03-14T01:31:07;8.18;;;4.03;;
46411;SDS011;32113;42.012;24.870;2023-03-14T01:33:34;9.10;;;3.20;;
46411;SDS011;32113;42.012;24.870;2023-03-14T01:35:59;5.90;;;3.58;;
46411;SDS011;32113;42.012;24.870;2023-03-14T01:38:28;5.47;;;3.70;;
46411;SDS011;32113;42.012;24.870;2023-03-14T01:40:54;5.15;;;3.28;;
46411;SDS011;32113;42.012;24.870;2023-03-14T01:43:20;6.47;;;3.65;;
46411;SDS011;32113;42.012;24.870;2023-03-14T01:48:23;5.50;;;3.42;;
46411;SDS011;32113;42.012;24.870;2023-03-14T01:50:51;6.10;;;3.78;;
46411;SDS011;32113;42.012;24.870;2023-03-14T01:53:17;6.43;;;3.50;;
46411;SDS011;32113;42.012;24.870;2023-03-14T01:55:46;4.95;;;3.20;;
46411;SDS011;32113;42.012;24.870;2023-03-14T01:58:15;5.38;;;3.30;;
46411;SDS011;32113;42.012;24.870;2023-03-14T02:00:41;6.50;;;3.95;;
46411;SDS011;32113;42.012;24.870;2023-03-14T02:03:11;8.68;;;3.88;;
46411;SDS011;32113;42.012;24.870;2023-03-14T02:05:40;10.70;;;3.50;;
46411;SDS011;32113;42.012;24.870;2023-03-14T02:08:08;8.15;;;3.35;;
46411;SDS011;32113;42.012;24.870;2023-03-14T02:10:39;9.20;;;3.35;;
46411;SDS011;32113;42.012;24.870;2023-03-14T02:13:07;6.50;;;3.13;;
46411;SDS011;32113;42.012;24.870;2023-03-14T02:15:34;4.35;;;3.28;;
46411;SDS011;32113;42.012;24.870;2023-03-14T02:18:00;6.78;;;3.60;;
46411;SDS011;32113;42.012;24.870;2023-03-14T02:26:20;5.00;;;3.20;;
46411;SDS011;32113;42.012;24.870;2023-03-14T02:28:52;6.40;;;3.10;;
46411;SDS011;32113;42.012;24.870;2023-03-14T02:31:18;5.15;;;3.10;;
46411;SDS011;32113;42.012;24.870;2023-03-14T02:33:46;4.90;;;3.38;;
46411;SDS011;32113;42.012;24.870;2023-03-14T02:36:11;4.95;;;3.00;;
46411;SDS011;32113;42.012;24.870;2023-03-14T02:41:25;7.15;;;3.20;;
46411;SDS011;32113;42.012;24.870;2023-03-14T02:43:50;8.85;;;3.25;;
46411;SDS011;32113;42.012;24.870;2023-03-14T02:46:16;4.72;;;3.10;;
46411;SDS011;32113;42.012;24.870;2023-03-14T02:48:45;4.68;;;2.80;;
46411;SDS011;32113;42.012;24.870;2023-03-14T02:51:32;4.50;;;2.83;;
46411;SDS011;32113;42.012;24.870;2023-03-14T02:53:57;5.25;;;2.83;;
46411;SDS011;32113;42.012;24.870;2023-03-14T02:56:23;7.38;;;2.55;;
46411;SDS011;32113;42.012;24.870;2023-03-14T02:58:48;6.15;;;3.03;;
46411;SDS011;32113;42.012;24.870;2023-03-14T03:01:14;9.40;;;3.65;;
46411;SDS011;32113;42.012;24.870;2023-03-14T03:03:39;9.07;;;3.97;;
46411;SDS011;32113;42.012;24.870;2023-03-14T03:06:05;5.68;;;3.53;;
46411;SDS011;32113;42.012;24.870;2023-03-14T03:08:31;7.55;;;3.88;;
46411;SDS011;32113;42.012;24.870;2023-03-14T03:10:57;8.30;;;3.50;;
46411;SDS011;32113;42.012;24.870;2023-03-14T03:13:22;9.38;;;3.58;;
46411;SDS011;32113;42.012;24.870;2023-03-14T03:15:48;7.05;;;3.35;;
46411;SDS011;32113;42.012;24.870;2023-03-14T03:18:13;10.10;;;3.65;;
46411;SDS011;32113;42.012;24.870;2023-03-14T03:20:39;7.57;;;3.83;;
46411;SDS011;32113;42.012;24.870;2023-03-14T03:23:05;8.35;;;3.58;;
46411;SDS011;32113;42.012;24.870;2023-03-14T03:25:30;6.65;;;3.35;;
46411;SDS011;32113;42.012;24.870;2023-03-14T03:27:56;6.30;;;3.80;;
46411;SDS011;32113;42.012;24.870;2023-03-14T03:30:22;6.15;;;4.03;;
46411;SDS011;32113;42.012;24.870;2023-03-14T03:32:47;9.05;;;4.70;;
46411;SDS011;32113;42.012;24.870;2023-03-14T03:35:13;11.23;;;4.55;;
46411;SDS011;32113;42.012;24.870;2023-03-14T03:37:38;7.97;;;4.00;;
46411;SDS011;32113;42.012;24.870;2023-03-14T03:40:04;6.80;;;4.03;;
46411;SDS011;32113;42.012;24.870;2023-03-14T03:42:31;8.57;;;3.90;;
46411;SDS011;32113;42.012;24.870;2023-03-14T03:44:58;9.05;;;4.22;;
46411;SDS011;32113;42.012;24.870;2023-03-14T03:47:25;5.80;;;3.70;;
46411;SDS011;32113;42.012;24.870;2023-03-14T03:49:50;5.35;;;3.33;;
46411;SDS011;32113;42.012;24.870;2023-03-14T03:52:16;6.22;;;3.70;;
46411;SDS011;32113;42.012;24.870;2023-03-14T03:54:41;8.32;;;4.20;;
46411;SDS011;32113;42.012;24.870;2023-03-14T03:57:06;11.63;;;5.40;;
46411;SDS011;32113;42.012;24.870;2023-03-14T03:59:32;9.85;;;5.03;;
46411;SDS011;32113;42.012;24.870;2023-03-14T04:01:57;14.82;;;5.88;;
46411;SDS011;32113;42.012;24.870;2023-03-14T04:04:23;8.50;;;5.25;;
46411;SDS011;32113;42.012;24.870;2023-03-14T04:06:48;8.05;;;5.30;;
46411;SDS011;32113;42.012;24.870;2023-03-14T04:09:13;7.78;;;5.03;;
46411;SDS011;32113;42.012;24.870;2023-03-14T04:11:39;8.82;;;5.00;;
46411;SDS011;32113;42.012;24.870;2023-03-14T04:14:06;8.32;;;4.57;;
46411;SDS011;32113;42.012;24.870;2023-03-14T04:16:31;8.43;;;4.13;;
46411;SDS011;32113;42.012;24.870;2023-03-14T04:18:57;5.05;;;2.90;;
46411;SDS011;32113;42.012;24.870;2023-03-14T04:21:23;4.60;;;2.95;;
46411;SDS011;32113;42.012;24.870;2023-03-14T04:23:49;4.38;;;2.70;;
46411;SDS011;32113;42.012;24.870;2023-03-14T04:26:15;5.47;;;3.13;;
46411;SDS011;32113;42.012;24.870;2023-03-14T04:28:40;4.03;;;2.60;;
46411;SDS011;32113;42.012;24.870;2023-03-14T04:31:09;4.05;;;2.85;;
46411;SDS011;32113;42.012;24.870;2023-03-14T04:33:36;7.80;;;3.40;;
46411;SDS011;32113;42.012;24.870;2023-03-14T04:36:02;5.30;;;2.95;;
46411;SDS011;32113;42.012;24.870;2023-03-14T04:38:28;10.27;;;3.85;;
46411;SDS011;32113;42.012;24.870;2023-03-14T04:40:54;6.60;;;3.88;;
46411;SDS011;32113;42.012;24.870;2023-03-14T04:43:19;7.10;;;3.92;;
46411;SDS011;32113;42.012;24.870;2023-03-14T04:45:44;5.68;;;3.40;;
46411;SDS011;32113;42.012;24.870;2023-03-14T04:48:10;4.22;;;2.75;;
46411;SDS011;32113;42.012;24.870;2023-03-14T04:50:35;3.55;;;2.63;;
46411;SDS011;32113;42.012;24.870;2023-03-14T04:53:01;5.88;;;3.33;;
46411;SDS011;32113;42.012;24.870;2023-03-14T04:55:26;8.07;;;4.03;;
46411;SDS011;32113;42.012;24.870;2023-03-14T04:57:51;11.85;;;4.93;;
46411;SDS011;32113;42.012;24.870;2023-03-14T05:00:17;16.55;;;7.35;;
46411;SDS011;32113;42.012;24.870;2023-03-14T05:02:43;9.73;;;5.22;;
46411;SDS011;32113;42.012;24.870;2023-03-14T05:05:09;10.13;;;5.63;;
46411;SDS011;32113;42.012;24.870;2023-03-14T05:07:35;16.27;;;6.55;;
46411;SDS011;32113;42.012;24.870;2023-03-14T05:10:00;13.40;;;5.90;;
46411;SDS011;32113;42.012;24.870;2023-03-14T05:12:26;13.82;;;6.07;;
46411;SDS011;32113;42.012;24.870;2023-03-14T05:14:51;9.75;;;6.35;;
46411;SDS011;32113;42.012;24.870;2023-03-14T05:17:16;13.00;;;5.85;;
46411;SDS011;32113;42.012;24.870;2023-03-14T05:19:43;11.35;;;6.07;;
46411;SDS011;32113;42.012;24.870;2023-03-14T05:22:09;16.65;;;6.65;;
46411;SDS011;32113;42.012;24.870;2023-03-14T05:24:35;22.10;;;7.97;;
46411;SDS011;32113;42.012;24.870;2023-03-14T05:27:00;17.85;;;7.95;;
46411;SDS011;32113;42.012;24.870;2023-03-14T05:29:26;16.13;;;9.40;;
46411;SDS011;32113;42.012;24.870;2023-03-14T05:31:51;18.13;;;9.00;;
46411;SDS011;32113;42.012;24.870;2023-03-14T05:34:16;15.32;;;7.78;;
46411;SDS011;32113;42.012;24.870;2023-03-14T05:36:42;17.52;;;8.52;;
46411;SDS011;32113;42.012;24.870;2023-03-14T05:39:07;19.58;;;10.10;;
46411;SDS011;32113;42.012;24.870;2023-03-14T05:41:32;26.17;;;11.80;;
46411;SDS011;32113;42.012;24.870;2023-03-14T05:43:58;26.65;;;13.55;;
46411;SDS011;32113;42.012;24.870;2023-03-14T05:46:23;34.33;;;13.65;;
46411;SDS011;32113;42.012;24.870;2023-03-14T05:48:49;29.60;;;12.68;;
46411;SDS011;32113;42.012;24.870;2023-03-14T05:51:14;19.23;;;10.90;;
46411;SDS011;32113;42.012;24.870;2023-03-14T05:53:39;15.85;;;10.50;;
46411;SDS011;32113;42.012;24.870;2023-03-14T05:56:05;19.23;;;10.52;;
46411;SDS011;32113;42.012;24.870;2023-03-14T05:58:31;18.33;;;8.65;;
46411;SDS011;32113;42.012;24.870;2023-03-14T06:00:56;21.42;;;11.27;;
46411;SDS011;32113;42.012;24.870;2023-03-14T06:03:22;25.75;;;11.27;;
46411;SDS011;32113;42.012;24.870;2023-03-14T06:05:49;18.70;;;10.18;;
46411;SDS011;32113;42.012;24.870;2023-03-14T06:08:16;15.82;;;8.68;;
46411;SDS011;32113;42.012;24.870;2023-03-14T06:10:41;16.08;;;8.77;;
46411;SDS011;32113;42.012;24.870;2023-03-14T06:13:07;19.05;;;10.35;;
46411;SDS011;32113;42.012;24.870;2023-03-14T06:15:32;18.83;;;10.48;;
46411;SDS011;32113;42.012;24.870;2023-03-14T06:17:58;22.40;;;11.88;;
46411;SDS011;32113;42.012;24.870;2023-03-14T06:20:23;30.45;;;17.85;;
46411;SDS011;32113;42.012;24.870;2023-03-14T06:22:49;30.30;;;14.02;;
46411;SDS011;32113;42.012;24.870;2023-03-14T06:25:15;58.75;;;21.42;;
46411;SDS011;32113;42.012;24.870;2023-03-14T06:27:40;22.75;;;13.05;;
46411;SDS011;32113;42.012;24.870;2023-03-14T06:30:06;22.70;;;11.80;;
46411;SDS011;32113;42.012;24.870;2023-03-14T06:32:32;24.45;;;11.50;;
46411;SDS011;32113;42.012;24.870;2023-03-14T06:34:58;22.70;;;12.50;;
46411;SDS011;32113;42.012;24.870;2023-03-14T06:37:26;21.45;;;12.23;;
46411;SDS011;32113;42.012;24.870;2023-03-14T06:39:55;22.13;;;12.32;;
46411;SDS011;32113;42.012;24.870;2023-03-14T06:42:21;38.30;;;21.15;;
46411;SDS011;32113;42.012;24.870;2023-03-14T06:44:46;25.67;;;11.55;;
46411;SDS011;32113;42.012;24.870;2023-03-14T06:47:12;25.67;;;11.65;;
46411;SDS011;32113;42.012;24.870;2023-03-14T06:49:38;29.63;;;10.65;;
46411;SDS011;32113;42.012;24.870;2023-03-14T06:52:03;29.77;;;16.80;;
46411;SDS011;32113;42.012;24.870;2023-03-14T06:54:29;69.38;;;36.33;;
46411;SDS011;32113;42.012;24.870;2023-03-14T06:56:54;47.47;;;23.83;;
46411;SDS011;32113;42.012;24.870;2023-03-14T06:59:20;24.60;;;13.38;;
46411;SDS011;32113;42.012;24.870;2023-03-14T07:01:46;26.20;;;12.68;;
46411;SDS011;32113;42.012;24.870;2023-03-14T07:04:13;22.40;;;11.85;;
46411;SDS011;32113;42.012;24.870;2023-03-14T07:06:39;20.60;;;11.77;;
46411;SDS011;32113;42.012;24.870;2023-03-14T07:09:09;21.85;;;11.98;;
46411;SDS011;32113;42.012;24.870;2023-03-14T07:11:35;18.10;;;11.55;;
46411;SDS011;32113;42.012;24.870;2023-03-14T07:14:00;27.15;;;15.48;;
46411;SDS011;32113;42.012;24.870;2023-03-14T07:16:25;63.63;;;28.35;;
46411;SDS011;32113;42.012;24.870;2023-03-14T07:18:53;26.90;;;12.90;;
46411;SDS011;32113;42.012;24.870;2023-03-14T07:21:19;32.80;;;16.23;;
46411;SDS011;32113;42.012;24.870;2023-03-14T07:23:44;15.90;;;10.25;;
46411;SDS011;32113;42.012;24.870;2023-03-14T07:26:10;78.95;;;33.97;;
46411;SDS011;32113;42.012;24.870;2023-03-14T07:28:35;169.30;;;110.75;;
46411;SDS011;32113;42.012;24.870;2023-03-14T07:31:00;50.40;;;37.67;;
46411;SDS011;32113;42.012;24.870;2023-03-14T07:33:26;27.27;;;16.38;;
46411;SDS011;32113;42.012;24.870;2023-03-14T07:35:51;28.35;;;11.02;;
46411;SDS011;32113;42.012;24.870;2023-03-14T07:38:17;28.20;;;10.50;;
46411;SDS011;32113;42.012;24.870;2023-03-14T07:40:43;23.02;;;14.25;;
46411;SDS011;32113;42.012;24.870;2023-03-14T07:43:08;24.13;;;16.25;;
46411;SDS011;32113;42.012;24.870;2023-03-14T07:45:33;19.42;;;12.13;;
46411;SDS011;32113;42.012;24.870;2023-03-14T07:47:59;16.73;;;9.35;;
46411;SDS011;32113;42.012;24.870;2023-03-14T07:50:25;19.83;;;10.57;;
46411;SDS011;32113;42.012;24.870;2023-03-14T07:52:51;17.20;;;10.80;;
46411;SDS011;32113;42.012;24.870;2023-03-14T07:55:16;23.58;;;10.90;;
46411;SDS011;32113;42.012;24.870;2023-03-14T07:57:42;20.20;;;10.50;;
46411;SDS011;32113;42.012;24.870;2023-03-14T08:00:08;22.95;;;12.10;;
46411;SDS011;32113;42.012;24.870;2023-03-14T08:02:34;19.80;;;9.90;;
46411;SDS011;32113;42.012;24.870;2023-03-14T08:05:01;18.10;;;9.38;;
46411;SDS011;32113;42.012;24.870;2023-03-14T08:07:26;17.75;;;9.32;;
46411;SDS011;32113;42.012;24.870;2023-03-14T08:09:52;13.70;;;9.35;;
46411;SDS011;32113;42.012;24.870;2023-03-14T08:12:17;18.77;;;7.97;;
46411;SDS011;32113;42.012;24.870;2023-03-14T08:14:42;15.85;;;6.78;;
46411;SDS011;32113;42.012;24.870;2023-03-14T08:17:08;14.40;;;6.55;;
46411;SDS011;32113;42.012;24.870;2023-03-14T08:19:34;10.10;;;6.72;;
46411;SDS011;32113;42.012;24.870;2023-03-14T08:21:59;20.67;;;7.30;;
46411;SDS011;32113;42.012;24.870;2023-03-14T08:24:24;9.75;;;6.40;;
46411;SDS011;32113;42.012;24.870;2023-03-14T08:26:50;13.57;;;5.95;;
46411;SDS011;32113;42.012;24.870;2023-03-14T08:29:15;13.73;;;7.22;;
46411;SDS011;32113;42.012;24.870;2023-03-14T08:31:41;14.70;;;6.10;;
46411;SDS011;32113;42.012;24.870;2023-03-14T08:34:06;14.38;;;6.50;;
46411;SDS011;32113;42.012;24.870;2023-03-14T08:36:32;13.25;;;6.30;;
46411;SDS011;32113;42.012;24.870;2023-03-14T08:38:58;16.35;;;6.30;;
46411;SDS011;32113;42.012;24.870;2023-03-14T08:41:23;12.63;;;5.45;;
46411;SDS011;32113;42.012;24.870;2023-03-14T08:43:49;11.75;;;6.20;;
46411;SDS011;32113;42.012;24.870;2023-03-14T08:46:14;11.40;;;5.80;;
46411;SDS011;32113;42.012;24.870;2023-03-14T08:48:40;17.85;;;10.02;;
46411;SDS011;32113;42.012;24.870;2023-03-14T08:51:09;15.00;;;5.97;;
46411;SDS011;32113;42.012;24.870;2023-03-14T08:53:37;16.80;;;8.68;;
46411;SDS011;32113;42.012;24.870;2023-03-14T08:56:03;8.38;;;4.43;;
46411;SDS011;32113;42.012;24.870;2023-03-14T08:58:30;12.07;;;7.50;;
46411;SDS011;32113;42.012;24.870;2023-03-14T09:00:56;10.93;;;5.38;;
46411;SDS011;32113;42.012;24.870;2023-03-14T09:03:21;10.88;;;5.00;;
46411;SDS011;32113;42.012;24.870;2023-03-14T09:05:48;9.05;;;5.30;;
46411;SDS011;32113;42.012;24.870;2023-03-14T09:08:14;12.05;;;5.82;;
46411;SDS011;32113;42.012;24.870;2023-03-14T09:10:40;14.10;;;5.85;;
46411;SDS011;32113;42.012;24.870;2023-03-14T09:13:05;11.65;;;5.68;;
46411;SDS011;32113;42.012;24.870;2023-03-14T09:15:31;10.27;;;4.90;;
46411;SDS011;32113;42.012;24.870;2023-03-14T09:17:57;9.95;;;4.63;;
46411;SDS011;32113;42.012;24.870;2023-03-14T09:20:23;11.20;;;5.20;;
46411;SDS011;32113;42.012;24.870;2023-03-14T09:22:48;10.25;;;4.78;;
46411;SDS011;32113;42.012;24.870;2023-03-14T09:25:13;10.18;;;5.00;;
46411;SDS011;32113;42.012;24.870;2023-03-14T09:27:39;11.02;;;5.28;;
46411;SDS011;32113;42.012;24.870;2023-03-14T09:30:05;9.43;;;4.80;;
46411;SDS011;32113;42.012;24.870;2023-03-14T09:32:30;14.18;;;5.03;;
46411;SDS011;32113;42.012;24.870;2023-03-14T09:34:56;9.50;;;5.50;;
46411;SDS011;32113;42.012;24.870;2023-03-14T09:37:22;13.00;;;5.50;;
46411;SDS011;32113;42.012;24.870;2023-03-14T09:39:47;14.32;;;5.72;;
46411;SDS011;32113;42.012;24.870;2023-03-14T09:42:14;11.45;;;5.40;;
46411;SDS011;32113;42.012;24.870;2023-03-14T09:44:47;9.10;;;5.30;;
46411;SDS011;32113;42.012;24.870;2023-03-14T09:47:20;11.10;;;5.60;;
46411;SDS011;32113;42.012;24.870;2023-03-14T09:49:48;14.77;;;5.82;;
46411;SDS011;32113;42.012;24.870;2023-03-14T09:52:17;9.82;;;6.32;;
46411;SDS011;32113;42.012;24.870;2023-03-14T09:57:17;13.35;;;7.63;;
46411;SDS011;32113;42.012;24.870;2023-03-14T09:59:45;15.15;;;6.20;;
46411;SDS011;32113;42.012;24.870;2023-03-14T10:04:40;8.90;;;5.93;;
46411;SDS011;32113;42.012;24.870;2023-03-14T10:07:19;11.15;;;5.53;;
46411;SDS011;32113;42.012;24.870;2023-03-14T10:09:50;9.35;;;5.65;;
46411;SDS011;32113;42.012;24.870;2023-03-14T10:12:16;9.02;;;5.90;;
46411;SDS011;32113;42.012;24.870;2023-03-14T10:14:47;9.32;;;4.88;;
46411;SDS011;32113;42.012;24.870;2023-03-14T10:17:15;11.23;;;5.75;;
46411;SDS011;32113;42.012;24.870;2023-03-14T10:19:52;10.30;;;5.70;;
46411;SDS011;32113;42.012;24.870;2023-03-14T10:22:23;10.50;;;5.13;;
46411;SDS011;32113;42.012;24.870;2023-03-14T10:24:53;6.30;;;4.25;;
46411;SDS011;32113;42.012;24.870;2023-03-14T10:27:22;8.50;;;5.53;;
46411;SDS011;32113;42.012;24.870;2023-03-14T10:32:21;13.43;;;5.68;;
46411;SDS011;32113;42.012;24.870;2023-03-14T10:35:03;10.52;;;5.40;;
46411;SDS011;32113;42.012;24.870;2023-03-14T10:40:24;7.85;;;5.50;;
46411;SDS011;32113;42.012;24.870;2023-03-14T10:42:54;8.68;;;6.03;;
46411;SDS011;32113;42.012;24.870;2023-03-14T10:45:27;47.22;;;22.73;;
46411;SDS011;32113;42.012;24.870;2023-03-14T10:47:58;31.77;;;16.65;;
46411;SDS011;32113;42.012;24.870;2023-03-14T10:50:30;11.90;;;6.55;;
46411;SDS011;32113;42.012;24.870;2023-03-14T10:52:57;17.38;;;9.73;;
46411;SDS011;32113;42.012;24.870;2023-03-14T10:55:43;15.00;;;9.57;;
46411;SDS011;32113;42.012;24.870;2023-03-14T10:58:23;9.30;;;5.65;;
46411;SDS011;32113;42.012;24.870;2023-03-14T11:00:56;11.80;;;5.35;;
46411;SDS011;32113;42.012;24.870;2023-03-14T11:03:29;9.25;;;5.38;;
46411;SDS011;32113;42.012;24.870;2023-03-14T11:05:57;10.50;;;8.13;;
46411;SDS011;32113;42.012;24.870;2023-03-14T11:08:52;12.60;;;7.65;;
46411;SDS011;32113;42.012;24.870;2023-03-14T11:11:31;9.10;;;5.45;;
46411;SDS011;32113;42.012;24.870;2023-03-14T11:14:15;31.45;;;17.00;;
46411;SDS011;32113;42.012;24.870;2023-03-14T11:17:49;17.25;;;11.00;;
46411;SDS011;32113;42.012;24.870;2023-03-14T11:23:11;8.30;;;4.72;;
46411;SDS011;32113;42.012;24.870;2023-03-14T11:25:47;9.15;;;5.43;;
46411;SDS011;32113;42.012;24.870;2023-03-14T11:28:43;7.43;;;4.90;;
46411;SDS011;32113;42.012;24.870;2023-03-14T11:31:28;10.27;;;5.63;;
46411;SDS011;32113;42.012;24.870;2023-03-14T11:36:43;9.88;;;5.68;;
46411;SDS011;32113;42.012;24.870;2023-03-14T11:39:15;7.88;;;5.45;;
46411;SDS011;32113;42.012;24.870;2023-03-14T11:41:43;10.07;;;5.63;;
46411;SDS011;32113;42.012;24.870;2023-03-14T11:47:07;10.07;;;5.30;;
46411;SDS011;32113;42.012;24.870;2023-03-14T11:49:45;8.30;;;5.35;;
46411;SDS011;32113;42.012;24.870;2023-03-14T11:57:20;13.10;;;5.00;;
46411;SDS011;32113;42.012;24.870;2023-03-14T11:59:51;7.70;;;4.82;;
46411;SDS011;32113;42.012;24.870;2023-03-14T12:10:39;9.95;;;5.32;;
46411;SDS011;32113;42.012;24.870;2023-03-14T12:13:13;7.40;;;4.82;;
46411;SDS011;32113;42.012;24.870;2023-03-14T12:15:41;14.68;;;5.28;;
46411;SDS011;32113;42.012;24.870;2023-03-14T12:18:20;10.75;;;4.60;;
46411;SDS011;32113;42.012;24.870;2023-03-14T12:20:53;9.00;;;4.80;;
46411;SDS011;32113;42.012;24.870;2023-03-14T12:23:21;12.43;;;5.65;;
46411;SDS011;32113;42.012;24.870;2023-03-14T12:25:46;11.15;;;6.20;;
46411;SDS011;32113;42.012;24.870;2023-03-14T12:30:44;10.05;;;5.05;;
46411;SDS011;32113;42.012;24.870;2023-03-14T12:35:42;7.45;;;4.70;;
46411;SDS011;32113;42.012;24.870;2023-03-14T12:38:09;9.23;;;4.13;;
46411;SDS011;32113;42.012;24.870;2023-03-14T12:41:28;5.22;;;3.80;;
46411;SDS011;32113;42.012;24.870;2023-03-14T12:43:37;9.68;;;4.38;;
46411;SDS011;32113;42.012;24.870;2023-03-14T12:48:32;11.63;;;4.00;;
46411;SDS011;32113;42.012;24.870;2023-03-14T12:51:01;6.18;;;4.00;;
46411;SDS011;32113;42.012;24.870;2023-03-14T12:53:36;6.90;;;3.72;;
46411;SDS011;32113;42.012;24.870;2023-03-14T12:59:03;5.85;;;4.05;;
46411;SDS011;32113;42.012;24.870;2023-03-14T13:01:45;7.78;;;4.65;;
46411;SDS011;32113;42.012;24.870;2023-03-14T13:04:13;8.60;;;3.90;;
46411;SDS011;32113;42.012;24.870;2023-03-14T13:06:52;6.55;;;4.25;;
46411;SDS011;32113;42.012;24.870;2023-03-14T13:12:11;11.35;;;4.47;;
46411;SDS011;32113;42.012;24.870;2023-03-14T13:14:43;7.60;;;3.72;;
46411;SDS011;32113;42.012;24.870;2023-03-14T13:17:11;8.15;;;4.20;;
46411;SDS011;32113;42.012;24.870;2023-03-14T13:19:38;9.07;;;5.03;;
46411;SDS011;32113;42.012;24.870;2023-03-14T13:22:05;5.72;;;3.95;;
46411;SDS011;32113;42.012;24.870;2023-03-14T13:24:46;8.63;;;4.22;;
46411;SDS011;32113;42.012;24.870;2023-03-14T13:27:18;10.00;;;4.57;;
46411;SDS011;32113;42.012;24.870;2023-03-14T13:29:45;6.90;;;3.95;;
46411;SDS011;32113;42.012;24.870;2023-03-14T13:32:17;10.35;;;4.47;;
46411;SDS011;32113;42.012;24.870;2023-03-14T13:34:46;9.43;;;4.15;;
46411;SDS011;32113;42.012;24.870;2023-03-14T13:37:20;7.20;;;4.25;;
46411;SDS011;32113;42.012;24.870;2023-03-14T13:39:55;8.73;;;4.18;;
46411;SDS011;32113;42.012;24.870;2023-03-14T13:42:25;6.57;;;4.13;;
46411;SDS011;32113;42.012;24.870;2023-03-14T13:44:53;7.57;;;4.28;;
46411;SDS011;32113;42.012;24.870;2023-03-14T13:47:21;8.05;;;4.40;;
46411;SDS011;32113;42.012;24.870;2023-03-14T13:49:48;14.07;;;4.70;;
46411;SDS011;32113;42.012;24.870;2023-03-14T13:52:30;8.45;;;4.88;;
46411;SDS011;32113;42.012;24.870;2023-03-14T13:55:00;8.20;;;4.50;;
46411;SDS011;32113;42.012;24.870;2023-03-14T13:57:28;7.30;;;4.57;;
46411;SDS011;32113;42.012;24.870;2023-03-14T14:00:16;8.70;;;4.55;;
46411;SDS011;32113;42.012;24.870;2023-03-14T14:02:44;7.63;;;4.55;;
46411;SDS011;32113;42.012;24.870;2023-03-14T14:05:10;8.45;;;4.85;;
46411;SDS011;32113;42.012;24.870;2023-03-14T14:07:35;7.65;;;5.03;;
46411;SDS011;32113;42.012;24.870;2023-03-14T14:10:03;9.57;;;4.80;;
46411;SDS011;32113;42.012;24.870;2023-03-14T14:15:44;15.32;;;5.85;;
46411;SDS011;32113;42.012;24.870;2023-03-14T14:17:53;12.82;;;5.15;;
46411;SDS011;32113;42.012;24.870;2023-03-14T14:23:22;9.80;;;4.85;;
46411;SDS011;32113;42.012;24.870;2023-03-14T14:25:53;6.10;;;4.60;;
46411;SDS011;32113;42.012;24.870;2023-03-14T14:28:27;7.15;;;4.32;;
46411;SDS011;32113;42.012;24.870;2023-03-14T14:33:43;9.00;;;4.43;;
46411;SDS011;32113;42.012;24.870;2023-03-14T14:36:18;10.20;;;4.72;;
46411;SDS011;32113;42.012;24.870;2023-03-14T14:38:56;13.52;;;6.25;;
46411;SDS011;32113;42.012;24.870;2023-03-14T14:41:31;7.05;;;4.22;;
46411;SDS011;32113;42.012;24.870;2023-03-14T14:43:59;9.70;;;3.67;;
46411;SDS011;32113;42.012;24.870;2023-03-14T14:46:26;6.63;;;4.15;;
46411;SDS011;32113;42.012;24.870;2023-03-14T14:48:58;7.07;;;4.00;;
46411;SDS011;32113;42.012;24.870;2023-03-14T14:51:32;3.92;;;2.70;;
46411;SDS011;32113;42.012;24.870;2023-03-14T14:54:04;6.32;;;2.85;;
46411;SDS011;32113;42.012;24.870;2023-03-14T14:56:36;12.48;;;3.83;;
46411;SDS011;32113;42.012;24.870;2023-03-14T14:59:02;13.02;;;5.70;;
46411;SDS011;32113;42.012;24.870;2023-03-14T15:01:39;5.90;;;3.60;;
46411;SDS011;32113;42.012;24.870;2023-03-14T15:04:12;10.77;;;4.38;;
46411;SDS011;32113;42.012;24.870;2023-03-14T15:06:40;5.93;;;3.20;;
46411;SDS011;32113;42.012;24.870;2023-03-14T15:09:10;5.63;;;3.35;;
46411;SDS011;32113;42.012;24.870;2023-03-14T15:11:36;10.40;;;3.50;;
46411;SDS011;32113;42.012;24.870;2023-03-14T15:14:02;5.70;;;2.67;;
46411;SDS011;32113;42.012;24.870;2023-03-14T15:16:29;8.88;;;3.13;;
46411;SDS011;32113;42.012;24.870;2023-03-14T15:19:00;6.88;;;2.97;;
46411;SDS011;32113;42.012;24.870;2023-03-14T15:21:30;7.47;;;2.70;;
46411;SDS011;32113;42.012;24.870;2023-03-14T15:23:56;6.85;;;2.47;;
46411;SDS011;32113;42.012;24.870;2023-03-14T15:26:22;7.20;;;2.55;;
46411;SDS011;32113;42.012;24.870;2023-03-14T15:28:49;3.20;;;1.92;;
46411;SDS011;32113;42.012;24.870;2023-03-14T15:31:16;12.52;;;5.80;;
46411;SDS011;32113;42.012;24.870;2023-03-14T15:33:43;21.20;;;12.10;;
46411;SDS011;32113;42.012;24.870;2023-03-14T15:38:41;12.77;;;8.57;;
46411;SDS011;32113;42.012;24.870;2023-03-14T15:41:07;10.50;;;3.65;;